createdAt,value
2022-08-29T00:02:00.028Z,15.34
2022-08-29T00:04:27.272Z,15.34
2022-08-29T00:06:54.316Z,15.38
2022-08-29T00:09:20.736Z,15.36
2022-08-29T00:11:47.172Z,15.24
2022-08-29T00:14:20.999Z,15.17
2022-08-29T00:16:50.057Z,15.19
2022-08-29T00:19:17.987Z,15.23
2022-08-29T00:21:44.745Z,15.18
2022-08-29T00:24:13.872Z,15.13
2022-08-29T00:26:42.141Z,15.20
2022-08-29T00:29:08.646Z,15.14
2022-08-29T00:31:36.826Z,15.19
2022-08-29T00:34:03.907Z,15.20
2022-08-29T00:36:30.624Z,15.13
2022-08-29T00:39:01.125Z,15.08
2022-08-29T00:41:29.306Z,14.99
2022-08-29T00:43:55.714Z,15.04
2022-08-29T00:46:22.105Z,14.93
2022-08-29T00:48:57.091Z,14.97
2022-08-29T00:51:23.871Z,14.88
2022-08-29T00:53:57.817Z,14.88
2022-08-29T00:56:24.611Z,14.95
2022-08-29T00:58:56.120Z,14.96
2022-08-29T01:01:23.286Z,14.96
2022-08-29T01:03:51.053Z,14.91
2022-08-29T01:06:20.894Z,14.85
2022-08-29T01:08:47.913Z,14.89
2022-08-29T01:11:34.368Z,14.93
2022-08-29T01:14:01.281Z,14.95
2022-08-29T01:16:28.436Z,14.97
2022-08-29T01:18:58.039Z,14.91
2022-08-29T01:21:50.677Z,15.00
2022-08-29T01:24:35.693Z,15.05
2022-08-29T01:27:05.693Z,14.96
2022-08-29T01:29:32.110Z,14.89
2022-08-29T01:31:58.637Z,14.81
2022-08-29T01:34:27.021Z,14.76
2022-08-29T01:36:55.546Z,14.65
2022-08-29T01:39:23.421Z,14.61
2022-08-29T01:41:50.229Z,14.75
2022-08-29T01:44:22.398Z,14.79
2022-08-29T01:46:50.095Z,14.77
2022-08-29T01:49:18.921Z,14.73
2022-08-29T01:51:45.757Z,14.72
2022-08-29T01:54:12.305Z,14.62
2022-08-29T01:56:43.320Z,14.58
2022-08-29T01:59:11.503Z,14.64
2022-08-29T02:01:39.271Z,14.59
2022-08-29T02:04:07.351Z,14.60
2022-08-29T02:06:33.888Z,14.65
2022-08-29T02:09:01.104Z,14.58
2022-08-29T02:11:27.813Z,14.57
2022-08-29T02:13:55.511Z,14.58
2022-08-29T02:16:23.479Z,14.55
2022-08-29T02:18:53.343Z,14.52
2022-08-29T02:21:21.034Z,14.48
2022-08-29T02:23:53.493Z,14.47
2022-08-29T02:26:21.492Z,14.45
2022-08-29T02:28:50.432Z,14.46
2022-08-29T02:31:17.646Z,14.51
2022-08-29T02:33:46.963Z,14.50
2022-08-29T02:36:13.672Z,14.44
2022-08-29T02:38:40.458Z,14.36
2022-08-29T02:41:11.231Z,14.42
2022-08-29T02:43:40.075Z,14.47
2022-08-29T02:46:06.964Z,14.45
2022-08-29T02:48:34.594Z,14.48
2022-08-29T02:51:01.033Z,14.44
2022-08-29T02:53:31.103Z,14.47
2022-08-29T02:55:57.577Z,14.47
2022-08-29T02:58:24.818Z,14.39
2022-08-29T03:00:52.013Z,14.36
2022-08-29T03:03:18.929Z,14.31
2022-08-29T03:05:45.332Z,14.27
2022-08-29T03:08:14.238Z,14.29
2022-08-29T03:10:41.241Z,14.33
2022-08-29T03:13:07.671Z,14.37
2022-08-29T03:15:34.149Z,14.33
2022-08-29T03:18:01.284Z,14.38
2022-08-29T03:20:27.739Z,14.31
2022-08-29T03:22:54.840Z,14.26
2022-08-29T03:25:22.517Z,14.23
2022-08-29T03:27:48.953Z,14.16
2022-08-29T03:30:16.252Z,14.09
2022-08-29T03:32:43.507Z,14.07
2022-08-29T03:35:11.214Z,14.11
2022-08-29T03:37:37.890Z,14.18
2022-08-29T03:40:05.615Z,14.04
2022-08-29T03:42:32.205Z,14.10
2022-08-29T03:44:58.636Z,14.15
2022-08-29T03:47:25.169Z,14.14
2022-08-29T03:49:51.610Z,14.12
2022-08-29T03:52:17.989Z,14.10
2022-08-29T03:54:44.498Z,14.14
2022-08-29T03:57:11.853Z,14.13
2022-08-29T03:59:39.034Z,14.10
2022-08-29T04:02:05.841Z,14.10
2022-08-29T04:04:50.961Z,14.16
2022-08-29T04:07:17.697Z,14.15
2022-08-29T04:09:44.510Z,14.16
2022-08-29T04:12:11.713Z,14.14
2022-08-29T04:14:38.755Z,14.21
2022-08-29T04:17:05.606Z,14.17
2022-08-29T04:19:32.784Z,14.17
2022-08-29T04:22:01.609Z,14.18
2022-08-29T04:24:30.946Z,14.26
2022-08-29T04:26:57.480Z,14.32
2022-08-29T04:29:23.973Z,14.39
2022-08-29T04:31:52.005Z,14.43
2022-08-29T04:34:21.477Z,14.38
2022-08-29T04:36:48.281Z,14.40
2022-08-29T04:39:15.222Z,14.52
2022-08-29T04:41:42.175Z,14.62
2022-08-29T04:44:09.770Z,14.62
2022-08-29T04:46:36.301Z,14.63
2022-08-29T04:49:06.034Z,14.63
2022-08-29T04:51:42.170Z,14.67
2022-08-29T04:54:14.340Z,14.64
2022-08-29T04:56:45.308Z,14.65
2022-08-29T04:59:14.232Z,14.72
2022-08-29T05:01:42.500Z,14.69
2022-08-29T05:04:14.538Z,14.73
2022-08-29T05:06:41.380Z,14.86
2022-08-29T05:09:07.789Z,14.89
2022-08-29T05:11:34.503Z,14.93
2022-08-29T05:14:01.263Z,14.97
2022-08-29T05:16:31.868Z,15.04
2022-08-29T05:18:59.438Z,15.00
2022-08-29T05:21:27.575Z,15.01
2022-08-29T05:23:56.422Z,15.13
2022-08-29T05:26:23.529Z,15.22
2022-08-29T05:28:49.949Z,15.25
2022-08-29T05:31:22.619Z,15.26
2022-08-29T05:33:49.673Z,15.29
2022-08-29T05:36:16.141Z,15.35
2022-08-29T05:38:42.567Z,15.43
2022-08-29T05:41:08.953Z,15.42
2022-08-29T05:43:38.165Z,15.44
2022-08-29T05:46:06.139Z,15.51
2022-08-29T05:48:36.529Z,15.56
2022-08-29T05:51:05.823Z,15.64
2022-08-29T05:53:34.656Z,15.68
2022-08-29T05:56:01.082Z,15.72
2022-08-29T05:58:28.435Z,15.75
2022-08-29T06:00:54.814Z,15.82
2022-08-29T06:03:24.047Z,15.91
2022-08-29T06:05:51.686Z,15.96
2022-08-29T06:08:18.694Z,16.00
2022-08-29T06:10:51.817Z,16.02
2022-08-29T06:13:18.300Z,16.12
2022-08-29T06:15:45.554Z,16.26
2022-08-29T06:18:12.128Z,16.30
2022-08-29T06:20:39.546Z,16.34
2022-08-29T06:23:06.226Z,16.38
2022-08-29T06:25:39.927Z,16.38
2022-08-29T06:28:10.314Z,16.43
2022-08-29T06:30:37.139Z,16.53
2022-08-29T06:33:03.692Z,16.56
2022-08-29T06:35:30.127Z,16.61
2022-08-29T06:37:59.846Z,16.67
2022-08-29T06:40:27.403Z,16.74
2022-08-29T06:42:53.909Z,16.83
2022-08-29T06:45:20.303Z,16.78
2022-08-29T06:47:50.107Z,16.73
2022-08-29T06:50:17.221Z,16.81
2022-08-29T06:52:44.064Z,16.87
2022-08-29T06:55:13.674Z,16.82
2022-08-29T06:57:45.968Z,16.71
2022-08-29T07:00:22.402Z,16.69
2022-08-29T07:02:51.710Z,16.66
2022-08-29T07:05:19.671Z,16.71
2022-08-29T07:07:46.107Z,16.71
2022-08-29T07:10:22.073Z,16.71
2022-08-29T07:12:49.703Z,16.69
2022-08-29T07:15:19.750Z,16.69
2022-08-29T07:17:46.284Z,16.73
2022-08-29T07:20:13.510Z,16.70
2022-08-29T07:22:44.449Z,16.65
2022-08-29T07:25:14.513Z,16.62
2022-08-29T07:27:40.969Z,16.68
2022-08-29T07:30:07.626Z,16.73
2022-08-29T07:32:34.042Z,16.81
2022-08-29T07:35:00.579Z,16.92
2022-08-29T07:37:27.056Z,16.94
2022-08-29T07:39:56.664Z,17.00
2022-08-29T07:42:23.346Z,17.10
2022-08-29T07:44:52.443Z,17.16
2022-08-29T07:47:18.833Z,17.17
2022-08-29T07:49:45.351Z,17.18
2022-08-29T07:52:16.754Z,17.18
2022-08-29T07:54:43.201Z,17.16
2022-08-29T07:57:09.603Z,17.07
2022-08-29T07:59:36.203Z,17.08
2022-08-29T08:02:03.734Z,17.11
2022-08-29T08:04:32.979Z,17.13
2022-08-29T08:06:59.374Z,17.15
2022-08-29T08:09:25.854Z,17.19
2022-08-29T08:11:52.296Z,17.33
2022-08-29T08:14:18.792Z,17.48
2022-08-29T08:16:45.457Z,17.56
2022-08-29T08:19:13.150Z,17.68
2022-08-29T08:21:49.204Z,17.76
2022-08-29T08:24:19.358Z,17.76
2022-08-29T08:26:46.277Z,17.82
2022-08-29T08:29:16.415Z,17.90
2022-08-29T08:31:46.959Z,18.09
2022-08-29T08:34:16.463Z,18.14
2022-08-29T08:36:44.729Z,17.96
2022-08-29T08:39:11.948Z,17.95
2022-08-29T08:41:44.627Z,17.91
2022-08-29T08:44:15.863Z,17.86
2022-08-29T08:46:44.258Z,17.88
2022-08-29T08:49:14.361Z,17.90
2022-08-29T08:51:43.745Z,17.98
2022-08-29T08:54:15.001Z,18.08
2022-08-29T08:56:46.831Z,18.20
2022-08-29T08:59:17.109Z,18.40
2022-08-29T09:01:47.357Z,18.52
2022-08-29T09:04:25.445Z,18.60
2022-08-29T09:06:59.757Z,18.57
2022-08-29T09:09:35.284Z,18.72
2022-08-29T09:12:23.265Z,18.74
2022-08-29T09:14:53.201Z,18.83
2022-08-29T09:17:23.464Z,18.78
2022-08-29T09:19:53.884Z,18.73
2022-08-29T09:22:23.770Z,18.81
2022-08-29T09:24:53.747Z,18.88
2022-08-29T09:27:22.061Z,18.80
2022-08-29T09:29:49.770Z,19.02
2022-08-29T09:32:22.322Z,19.02
2022-08-29T09:37:35.612Z,19.12
2022-08-29T09:40:09.205Z,19.32
2022-08-29T09:42:37.172Z,19.31
2022-08-29T09:45:25.089Z,19.31
2022-08-29T09:48:10.274Z,19.29
2022-08-29T09:50:37.017Z,19.39
2022-08-29T09:53:09.770Z,19.43
2022-08-29T09:55:50.661Z,19.17
2022-08-29T09:58:18.403Z,19.21
2022-08-29T10:00:59.190Z,19.06
2022-08-29T10:03:26.844Z,19.04
2022-08-29T10:06:07.855Z,19.11
2022-08-29T10:08:36.475Z,19.33
2022-08-29T10:11:05.906Z,19.43
2022-08-29T10:13:46.084Z,19.33
2022-08-29T10:16:12.499Z,19.27
2022-08-29T10:18:39.164Z,19.25
2022-08-29T10:21:10.212Z,19.44
2022-08-29T10:23:46.897Z,19.62
2022-08-29T10:26:28.944Z,19.78
2022-08-29T10:29:17.335Z,20.06
2022-08-29T10:31:55.966Z,20.08
2022-08-29T10:34:25.330Z,20.54
2022-08-29T10:36:55.583Z,20.98
2022-08-29T10:39:40.786Z,21.06
2022-08-29T10:42:15.348Z,21.07
2022-08-29T10:44:44.823Z,20.73
2022-08-29T10:47:11.189Z,20.88
2022-08-29T10:49:52.814Z,21.09
2022-08-29T10:52:45.508Z,20.87
2022-08-29T10:55:30.101Z,21.26
2022-08-29T10:58:02.478Z,21.33
2022-08-29T11:00:35.337Z,21.10
2022-08-29T11:03:13.068Z,20.98
2022-08-29T11:05:43.242Z,20.91
2022-08-29T11:08:35.986Z,20.76
2022-08-29T11:11:02.508Z,20.60
2022-08-29T11:13:36.413Z,20.52
2022-08-29T11:16:07.242Z,20.72
2022-08-29T11:18:43.556Z,20.76
2022-08-29T11:21:21.003Z,20.90
2022-08-29T11:23:48.106Z,20.93
2022-08-29T11:26:29.573Z,20.90
2022-08-29T11:29:14.836Z,21.22
2022-08-29T11:31:47.377Z,21.25
2022-08-29T11:34:31.771Z,21.35
2022-08-29T11:37:01.295Z,21.03
2022-08-29T11:39:27.651Z,20.91
2022-08-29T11:41:58.451Z,20.95
2022-08-29T11:44:27.850Z,21.20
2022-08-29T11:46:56.216Z,21.48
2022-08-29T11:49:44.666Z,21.50
2022-08-29T11:52:11.264Z,21.57
2022-08-29T11:54:41.001Z,21.42
2022-08-29T11:57:10.210Z,21.58
2022-08-29T11:59:49.394Z,21.78
2022-08-29T12:02:29.180Z,21.68
2022-08-29T12:04:57.663Z,21.19
2022-08-29T12:07:36.113Z,20.87
2022-08-29T12:10:05.414Z,21.05
2022-08-29T12:12:52.126Z,21.47
2022-08-29T12:15:27.633Z,21.80
2022-08-29T12:18:03.796Z,21.95
2022-08-29T12:20:30.663Z,22.12
2022-08-29T12:22:59.615Z,22.17
2022-08-29T12:28:57.798Z,21.64
2022-08-29T12:31:27.080Z,21.21
2022-08-29T12:34:04.706Z,21.00
2022-08-29T12:36:52.540Z,20.78
2022-08-29T12:39:38.146Z,20.61
2022-08-29T12:42:16.407Z,20.51
2022-08-29T12:44:44.596Z,20.51
2022-08-29T12:47:12.426Z,20.56
2022-08-29T12:49:51.695Z,20.67
2022-08-29T12:52:28.622Z,21.07
2022-08-29T12:54:56.731Z,21.67
2022-08-29T12:57:32.063Z,21.63
2022-08-29T12:59:59.168Z,21.71
2022-08-29T13:02:28.690Z,21.77
2022-08-29T13:04:55.833Z,22.11
2022-08-29T13:07:25.114Z,22.24
2022-08-29T13:09:56.478Z,21.80
2022-08-29T13:12:30.350Z,21.93
2022-08-29T13:15:07.461Z,21.65
2022-08-29T13:17:36.090Z,21.32
2022-08-29T13:20:21.309Z,21.52
2022-08-29T13:22:47.712Z,21.33
2022-08-29T13:25:15.749Z,21.20
2022-08-29T13:27:42.451Z,20.91
2022-08-29T13:30:09.089Z,20.89
2022-08-29T13:32:36.349Z,20.88
2022-08-29T13:35:06.229Z,20.71
2022-08-29T13:37:34.694Z,20.60
2022-08-29T13:40:19.883Z,20.55
2022-08-29T13:42:47.484Z,20.49
2022-08-29T13:45:20.455Z,20.48
2022-08-29T13:47:55.613Z,20.48
2022-08-29T13:50:22.436Z,20.55
2022-08-29T13:52:56.745Z,20.79
2022-08-29T13:55:23.446Z,20.99
2022-08-29T13:57:52.274Z,21.12
2022-08-29T14:00:19.383Z,21.23
2022-08-29T14:03:01.690Z,21.38
2022-08-29T14:05:30.868Z,21.60
2022-08-29T14:07:57.326Z,21.73
2022-08-29T14:10:23.737Z,21.81
2022-08-29T14:12:50.146Z,21.83
2022-08-29T14:15:21.108Z,21.90
2022-08-29T14:17:50.876Z,21.97
2022-08-29T14:20:17.900Z,21.97
2022-08-29T14:22:44.551Z,21.97
2022-08-29T14:25:11.691Z,21.97
2022-08-29T14:27:38.661Z,21.98
2022-08-29T14:30:06.367Z,21.79
2022-08-29T14:32:36.032Z,21.68
2022-08-29T14:35:03.071Z,21.41
2022-08-29T14:37:29.527Z,21.27
2022-08-29T14:39:55.985Z,21.16
2022-08-29T14:42:24.761Z,21.19
2022-08-29T14:44:51.277Z,21.24
2022-08-29T14:47:17.919Z,21.44
2022-08-29T14:49:44.371Z,21.64
2022-08-29T14:52:15.155Z,21.70
2022-08-29T14:54:42.847Z,21.75
2022-08-29T14:57:09.680Z,21.72
2022-08-29T14:59:36.254Z,21.67
2022-08-29T15:02:03.442Z,21.67
2022-08-29T15:04:35.997Z,21.73
2022-08-29T15:07:11.730Z,21.80
2022-08-29T15:09:38.964Z,21.82
2022-08-29T15:12:09.366Z,21.89
2022-08-29T15:14:35.808Z,21.93
2022-08-29T15:17:02.857Z,21.88
2022-08-29T15:22:16.426Z,21.70
2022-08-29T15:24:43.040Z,21.70
2022-08-29T15:27:09.725Z,21.70
2022-08-29T15:29:37.341Z,21.76
2022-08-29T15:32:04.595Z,21.74
2022-08-29T15:34:31.502Z,21.58
2022-08-29T15:36:57.940Z,21.45
2022-08-29T15:39:28.444Z,21.34
2022-08-29T15:41:55.907Z,21.23
2022-08-29T15:44:25.372Z,21.17
2022-08-29T15:46:54.402Z,21.10
2022-08-29T15:49:23.434Z,21.10
2022-08-29T15:51:52.944Z,21.18
2022-08-29T15:54:19.853Z,21.21
2022-08-29T15:56:46.605Z,21.17
2022-08-29T15:59:13.603Z,21.17
2022-08-29T16:01:47.540Z,21.19
2022-08-29T16:04:17.814Z,21.23
2022-08-29T16:06:44.598Z,21.27
2022-08-29T16:09:15.555Z,21.27
2022-08-29T16:11:45.822Z,21.28
2022-08-29T16:17:02.134Z,21.33
2022-08-29T16:19:29.365Z,21.27
2022-08-29T16:22:00.097Z,21.19
2022-08-29T16:24:31.217Z,21.12
2022-08-29T16:26:58.418Z,21.04
2022-08-29T16:29:26.753Z,20.96
2022-08-29T16:31:54.037Z,20.88
2022-08-29T16:34:22.576Z,20.87
2022-08-29T16:36:52.004Z,20.85
2022-08-29T16:39:18.463Z,20.88
2022-08-29T16:41:45.257Z,20.88
2022-08-29T16:44:11.746Z,20.94
2022-08-29T16:46:38.569Z,20.98
2022-08-29T16:49:05.115Z,21.04
2022-08-29T16:51:31.838Z,21.05
2022-08-29T16:54:01.614Z,21.04
2022-08-29T16:56:28.113Z,21.01
2022-08-29T16:59:07.356Z,21.00
2022-08-29T17:01:38.291Z,20.92
2022-08-29T17:04:06.238Z,20.85
2022-08-29T17:06:32.770Z,20.79
2022-08-29T17:08:59.518Z,20.76
2022-08-29T17:11:26.316Z,20.77
2022-08-29T17:13:52.664Z,20.76
2022-08-29T17:16:19.265Z,20.71
2022-08-29T17:18:49.980Z,20.66
2022-08-29T17:21:16.533Z,20.59
2022-08-29T17:23:47.533Z,20.50
2022-08-29T17:26:16.366Z,20.44
2022-08-29T17:28:45.674Z,20.38
2022-08-29T17:31:12.804Z,20.32
2022-08-29T17:33:39.278Z,20.28
2022-08-29T17:36:05.910Z,20.18
2022-08-29T17:38:33.019Z,20.12
2022-08-29T17:41:05.232Z,20.06
2022-08-29T17:43:42.428Z,19.99
2022-08-29T17:46:09.285Z,19.94
2022-08-29T17:48:35.777Z,19.87
2022-08-29T17:51:02.176Z,19.81
2022-08-29T17:53:29.613Z,19.81
2022-08-29T17:55:56.052Z,19.78
2022-08-29T17:58:22.959Z,19.71
2022-08-29T18:00:58.768Z,19.71
2022-08-29T18:03:25.362Z,19.73
2022-08-29T18:05:51.746Z,19.74
2022-08-29T18:08:18.297Z,19.71
2022-08-29T18:10:44.771Z,19.60
2022-08-29T18:13:11.239Z,19.47
2022-08-29T18:15:37.709Z,19.43
2022-08-29T18:18:09.653Z,19.50
2022-08-29T18:20:37.474Z,19.50
2022-08-29T18:23:04.503Z,19.54
2022-08-29T18:25:30.909Z,19.58
2022-08-29T18:28:00.050Z,19.56
2022-08-29T18:30:27.591Z,19.54
2022-08-29T18:32:54.041Z,19.54
2022-08-29T18:35:20.548Z,19.53
2022-08-29T18:37:46.960Z,19.47
2022-08-29T18:40:13.578Z,19.42
2022-08-29T18:42:41.710Z,19.38
2022-08-29T18:45:09.175Z,19.37
2022-08-29T18:47:35.558Z,19.41
2022-08-29T18:50:20.573Z,19.36
2022-08-29T18:52:51.586Z,19.29
2022-08-29T18:55:18.551Z,19.26
2022-08-29T18:57:49.836Z,19.21
2022-08-29T19:00:17.033Z,19.17
2022-08-29T19:02:43.562Z,19.14
2022-08-29T19:05:10.062Z,19.17
2022-08-29T19:07:36.514Z,19.17
2022-08-29T19:10:03.789Z,19.14
2022-08-29T19:12:30.298Z,19.12
2022-08-29T19:14:56.678Z,19.09
2022-08-29T19:17:23.165Z,19.08
2022-08-29T19:20:10.130Z,19.10
2022-08-29T19:22:37.620Z,19.05
2022-08-29T19:25:05.731Z,18.97
2022-08-29T19:27:44.355Z,18.94
2022-08-29T19:30:15.227Z,18.91
2022-08-29T19:32:41.684Z,18.89
2022-08-29T19:35:10.983Z,18.87
2022-08-29T19:37:37.675Z,18.84
2022-08-29T19:40:04.548Z,18.83
2022-08-29T19:42:31.480Z,18.78
2022-08-29T19:44:58.089Z,18.74
2022-08-29T19:47:25.143Z,18.69
2022-08-29T19:49:51.716Z,18.66
2022-08-29T19:52:18.119Z,18.60
2022-08-29T19:54:44.552Z,18.61
2022-08-29T19:57:16.141Z,18.58
2022-08-29T19:59:46.518Z,18.51
2022-08-29T20:02:15.419Z,18.47
2022-08-29T20:04:41.897Z,18.46
2022-08-29T20:07:08.884Z,18.44
2022-08-29T20:09:36.031Z,18.46
2022-08-29T20:12:03.660Z,18.40
2022-08-29T20:14:35.129Z,18.40
2022-08-29T20:17:07.527Z,18.36
2022-08-29T20:19:36.821Z,18.34
2022-08-29T20:22:06.050Z,18.33
2022-08-29T20:24:33.497Z,18.09
2022-08-29T20:27:00.222Z,17.62
2022-08-29T20:29:27.143Z,17.58
2022-08-29T20:31:55.968Z,17.40
2022-08-29T20:34:22.496Z,17.37
2022-08-29T20:37:07.832Z,17.41
2022-08-29T20:39:38.060Z,17.45
2022-08-29T20:42:08.151Z,17.53
2022-08-29T20:44:41.735Z,17.62
2022-08-29T20:47:09.262Z,17.65
2022-08-29T20:49:40.845Z,17.70
2022-08-29T20:52:11.425Z,17.76
2022-08-29T20:54:38.879Z,17.78
2022-08-29T20:57:06.441Z,17.77
2022-08-29T20:59:34.751Z,17.75
2022-08-29T21:02:02.983Z,17.71
2022-08-29T21:04:48.085Z,17.69
2022-08-29T21:07:17.880Z,17.64
2022-08-29T21:09:50.219Z,17.60
2022-08-29T21:12:17.055Z,17.65
2022-08-29T21:14:43.596Z,17.65
2022-08-29T21:17:13.587Z,17.67
2022-08-29T21:19:40.609Z,17.64
2022-08-29T21:22:07.967Z,17.56
2022-08-29T21:24:35.266Z,17.50
2022-08-29T21:27:01.675Z,17.53
2022-08-29T21:29:28.519Z,17.49
2022-08-29T21:31:55.069Z,17.52
2022-08-29T21:34:21.916Z,17.44
2022-08-29T21:36:52.077Z,17.35
2022-08-29T21:39:21.563Z,17.31
2022-08-29T21:41:54.716Z,17.26
2022-08-29T21:44:21.159Z,17.27
2022-08-29T21:46:48.719Z,17.28
2022-08-29T21:49:21.411Z,17.24
2022-08-29T21:51:48.087Z,17.12
2022-08-29T21:54:16.051Z,17.19
2022-08-29T21:56:43.126Z,17.20
2022-08-29T21:59:10.117Z,17.22
2022-08-29T22:01:39.586Z,17.37
2022-08-29T22:04:10.288Z,17.41
2022-08-29T22:06:39.792Z,17.34
2022-08-29T22:09:09.274Z,17.22
2022-08-29T22:11:37.360Z,17.11
2022-08-29T22:14:05.034Z,16.92
2022-08-29T22:16:31.688Z,16.90
2022-08-29T22:19:11.599Z,16.92
2022-08-29T22:21:42.817Z,17.00
2022-08-29T22:24:10.544Z,17.02
2022-08-29T22:26:37.802Z,16.90
2022-08-29T22:29:05.361Z,16.72
2022-08-29T22:31:32.103Z,16.58
2022-08-29T22:34:02.921Z,16.55
2022-08-29T22:36:34.690Z,16.62
2022-08-29T22:39:01.161Z,16.73
2022-08-29T22:41:27.589Z,16.82
2022-08-29T22:44:11.377Z,16.66
2022-08-29T22:46:44.469Z,16.51
2022-08-29T22:49:17.748Z,16.57
2022-08-29T22:51:46.969Z,16.72
2022-08-29T22:54:31.781Z,16.55
2022-08-29T22:56:59.551Z,16.35
2022-08-29T22:59:26.010Z,16.19
2022-08-29T23:01:52.478Z,16.33
2022-08-29T23:04:19.135Z,16.43
2022-08-29T23:06:45.786Z,16.42
2022-08-29T23:09:12.950Z,16.43
2022-08-29T23:11:39.670Z,16.36
2022-08-29T23:14:06.234Z,16.41
2022-08-29T23:16:34.486Z,16.29
2022-08-29T23:19:01.606Z,16.05
2022-08-29T23:21:28.634Z,16.00
2022-08-29T23:23:55.359Z,16.12
2022-08-29T23:26:21.733Z,16.21
2022-08-29T23:28:48.150Z,16.05
2022-08-29T23:31:15.421Z,15.87
2022-08-29T23:33:42.214Z,15.87
2022-08-29T23:36:08.868Z,15.91
2022-08-29T23:38:35.733Z,15.89
2022-08-29T23:41:02.262Z,15.73
2022-08-29T23:43:29.590Z,15.81
2022-08-29T23:46:03.325Z,15.65
2022-08-29T23:48:29.798Z,15.59
2022-08-29T23:50:56.327Z,15.75
2022-08-29T23:53:23.394Z,15.89
2022-08-29T23:55:50.423Z,15.88
2022-08-29T23:58:17.388Z,15.82
